sensor_id;sensor_type;location;lat;lon;timestamp;pressure;altitude;pressure_sealevel;temperature;humidity
70323;BME280;57735;56.264;43.898;2023-05-03T00:01:16;101271.22;;;6.95;83.24
70323;BME280;57735;56.264;43.898;2023-05-03T00:03:51;101273.84;;;6.95;83.55
70323;BME280;57735;56.264;43.898;2023-05-03T00:06:21;101274.38;;;7.00;83.30
70323;BME280;57735;56.264;43.898;2023-05-03T00:08:54;101268.97;;;7.02;83.33
70323;BME280;57735;56.264;43.898;2023-05-03T00:11:25;101275.84;;;7.04;83.03
70323;BME280;57735;56.264;43.898;2023-05-03T00:13:56;101271.28;;;7.06;82.95
70323;BME280;57735;56.264;43.898;2023-05-03T00:16:27;101269.38;;;7.08;82.81
70323;BME280;57735;56.264;43.898;2023-05-03T00:18:58;101261.19;;;7.11;82.92
70323;BME280;57735;56.264;43.898;2023-05-03T00:21:28;101255.69;;;7.14;82.97
70323;BME280;57735;56.264;43.898;2023-05-03T00:23:59;101259.09;;;7.16;83.20
70323;BME280;57735;56.264;43.898;2023-05-03T00:26:30;101271.28;;;7.19;82.83
70323;BME280;57735;56.264;43.898;2023-05-03T00:29:02;101266.81;;;7.19;82.96
70323;BME280;57735;56.264;43.898;2023-05-03T00:31:35;101253.41;;;7.21;82.94
70323;BME280;57735;56.264;43.898;2023-05-03T00:34:06;101257.91;;;7.20;83.01
70323;BME280;57735;56.264;43.898;2023-05-03T00:36:36;101256.22;;;7.19;83.32
70323;BME280;57735;56.264;43.898;2023-05-03T00:39:07;101260.78;;;7.17;83.05
70323;BME280;57735;56.264;43.898;2023-05-03T00:41:39;101255.69;;;7.14;83.16
70323;BME280;57735;56.264;43.898;2023-05-03T00:44:09;101261.94;;;7.13;83.12
70323;BME280;57735;56.264;43.898;2023-05-03T00:46:40;101265.78;;;7.09;83.03
70323;BME280;57735;56.264;43.898;2023-05-03T00:49:11;101265.13;;;7.06;83.00
70323;BME280;57735;56.264;43.898;2023-05-03T00:51:42;101264.53;;;7.02;83.34
70323;BME280;57735;56.264;43.898;2023-05-03T00:54:12;101264.00;;;6.97;83.22
70323;BME280;57735;56.264;43.898;2023-05-03T00:56:43;101259.22;;;6.89;83.47
70323;BME280;57735;56.264;43.898;2023-05-03T00:59:14;101267.53;;;6.85;83.46
70323;BME280;57735;56.264;43.898;2023-05-03T01:01:49;101261.69;;;6.80;83.58
70323;BME280;57735;56.264;43.898;2023-05-03T01:04:21;101259.47;;;6.74;83.64
70323;BME280;57735;56.264;43.898;2023-05-03T01:07:09;101262.66;;;6.66;83.83
70323;BME280;57735;56.264;43.898;2023-05-03T01:12:46;101264.13;;;6.57;83.64
70323;BME280;57735;56.264;43.898;2023-05-03T01:15:51;101258.94;;;6.56;83.44
70323;BME280;57735;56.264;43.898;2023-05-03T01:18:30;101255.53;;;6.54;83.47
70323;BME280;57735;56.264;43.898;2023-05-03T01:21:04;101260.97;;;6.52;83.61
70323;BME280;57735;56.264;43.898;2023-05-03T01:23:49;101263.50;;;6.54;83.54
70323;BME280;57735;56.264;43.898;2023-05-03T01:26:25;101257.13;;;6.56;83.47
70323;BME280;57735;56.264;43.898;2023-05-03T01:28:56;101263.06;;;6.60;83.57
70323;BME280;57735;56.264;43.898;2023-05-03T01:31:40;101259.38;;;6.62;83.14
70323;BME280;57735;56.264;43.898;2023-05-03T01:36:48;101270.72;;;6.64;83.28
70323;BME280;57735;56.264;43.898;2023-05-03T01:39:22;101267.00;;;6.67;83.05
70323;BME280;57735;56.264;43.898;2023-05-03T01:41:53;101272.19;;;6.69;83.03
70323;BME280;57735;56.264;43.898;2023-05-03T01:44:25;101270.41;;;6.69;82.86
70323;BME280;57735;56.264;43.898;2023-05-03T01:46:56;101266.81;;;6.70;82.79
70323;BME280;57735;56.264;43.898;2023-05-03T01:49:27;101265.81;;;6.71;82.53
70323;BME280;57735;56.264;43.898;2023-05-03T01:51:58;101276.41;;;6.71;82.59
70323;BME280;57735;56.264;43.898;2023-05-03T01:54:29;101277.06;;;6.75;82.64
70323;BME280;57735;56.264;43.898;2023-05-03T01:57:00;101275.16;;;6.77;82.37
70323;BME280;57735;56.264;43.898;2023-05-03T01:59:31;101275.16;;;6.77;82.30
70323;BME280;57735;56.264;43.898;2023-05-03T02:02:01;101280.56;;;6.75;82.28
70323;BME280;57735;56.264;43.898;2023-05-03T02:04:32;101270.91;;;6.74;82.16
70323;BME280;57735;56.264;43.898;2023-05-03T02:07:03;101264.75;;;6.74;81.92
70323;BME280;57735;56.264;43.898;2023-05-03T02:09:36;101273.66;;;6.73;82.01
70323;BME280;57735;56.264;43.898;2023-05-03T02:12:07;101265.09;;;6.69;81.98
70323;BME280;57735;56.264;43.898;2023-05-03T02:14:39;101259.91;;;6.68;82.15
70323;BME280;57735;56.264;43.898;2023-05-03T02:17:10;101265.31;;;6.66;82.25
70323;BME280;57735;56.264;43.898;2023-05-03T02:19:41;101269.00;;;6.63;82.42
70323;BME280;57735;56.264;43.898;2023-05-03T02:22:11;101271.75;;;6.62;82.30
70323;BME280;57735;56.264;43.898;2023-05-03T02:24:42;101260.53;;;6.58;82.18
70323;BME280;57735;56.264;43.898;2023-05-03T02:27:13;101262.44;;;6.56;82.30
70323;BME280;57735;56.264;43.898;2023-05-03T02:29:44;101265.19;;;6.55;82.11
70323;BME280;57735;56.264;43.898;2023-05-03T02:32:15;101260.13;;;6.52;82.05
70323;BME280;57735;56.264;43.898;2023-05-03T02:34:47;101257.56;;;6.50;82.15
70323;BME280;57735;56.264;43.898;2023-05-03T02:37:20;101263.09;;;6.47;82.31
70323;BME280;57735;56.264;43.898;2023-05-03T02:39:53;101257.88;;;6.46;82.21
70323;BME280;57735;56.264;43.898;2023-05-03T02:42:24;101266.88;;;6.43;82.36
70323;BME280;57735;56.264;43.898;2023-05-03T02:44:55;101262.53;;;6.42;82.43
70323;BME280;57735;56.264;43.898;2023-05-03T02:47:25;101262.66;;;6.41;82.30
70323;BME280;57735;56.264;43.898;2023-05-03T02:49:56;101264.44;;;6.40;82.38
70323;BME280;57735;56.264;43.898;2023-05-03T02:52:27;101260.00;;;6.41;82.37
70323;BME280;57735;56.264;43.898;2023-05-03T02:54:58;101263.50;;;6.41;82.47
70323;BME280;57735;56.264;43.898;2023-05-03T02:57:29;101264.97;;;6.45;82.20
70323;BME280;57735;56.264;43.898;2023-05-03T03:00:00;101250.69;;;6.48;82.19
70323;BME280;57735;56.264;43.898;2023-05-03T03:02:34;101259.78;;;6.56;82.39
70323;BME280;57735;56.264;43.898;2023-05-03T03:05:04;101269.00;;;6.63;82.10
70323;BME280;57735;56.264;43.898;2023-05-03T03:07:38;101265.09;;;6.69;81.89
70323;BME280;57735;56.264;43.898;2023-05-03T03:10:09;101263.91;;;6.73;81.79
70323;BME280;57735;56.264;43.898;2023-05-03T03:12:40;101268.03;;;6.77;81.62
70323;BME280;57735;56.264;43.898;2023-05-03T03:15:11;101270.38;;;6.82;81.28
70323;BME280;57735;56.264;43.898;2023-05-03T03:17:42;101263.91;;;6.86;80.95
70323;BME280;57735;56.264;43.898;2023-05-03T03:20:15;101259.97;;;6.91;80.70
70323;BME280;57735;56.264;43.898;2023-05-03T03:22:49;101266.66;;;6.97;80.33
70323;BME280;57735;56.264;43.898;2023-05-03T03:25:19;101262.84;;;7.01;79.74
70323;BME280;57735;56.264;43.898;2023-05-03T03:27:51;101262.38;;;7.07;79.20
70323;BME280;57735;56.264;43.898;2023-05-03T03:30:22;101267.34;;;7.12;78.65
70323;BME280;57735;56.264;43.898;2023-05-03T03:32:53;101273.09;;;7.18;77.93
70323;BME280;57735;56.264;43.898;2023-05-03T03:35:24;101266.34;;;7.25;77.68
70323;BME280;57735;56.264;43.898;2023-05-03T03:37:55;101271.13;;;7.33;76.97
70323;BME280;57735;56.264;43.898;2023-05-03T03:40:28;101268.75;;;7.41;76.75
70323;BME280;57735;56.264;43.898;2023-05-03T03:42:59;101274.47;;;7.48;76.03
70323;BME280;57735;56.264;43.898;2023-05-03T03:45:30;101267.72;;;7.55;75.57
70323;BME280;57735;56.264;43.898;2023-05-03T03:48:01;101262.00;;;7.61;75.40
70323;BME280;57735;56.264;43.898;2023-05-03T03:50:32;101254.53;;;7.66;74.97
70323;BME280;57735;56.264;43.898;2023-05-03T03:53:03;101250.47;;;7.73;74.52
70323;BME280;57735;56.264;43.898;2023-05-03T03:55:34;101257.75;;;7.82;74.19
70323;BME280;57735;56.264;43.898;2023-05-03T03:58:05;101255.72;;;7.86;74.09
70323;BME280;57735;56.264;43.898;2023-05-03T04:00:35;101255.25;;;7.92;74.27
70323;BME280;57735;56.264;43.898;2023-05-03T04:03:06;101255.66;;;7.98;74.02
70323;BME280;57735;56.264;43.898;2023-05-03T04:05:37;101249.63;;;8.07;73.78
70323;BME280;57735;56.264;43.898;2023-05-03T04:08:08;101253.88;;;8.21;72.63
70323;BME280;57735;56.264;43.898;2023-05-03T04:10:38;101247.56;;;8.35;71.92
70323;BME280;57735;56.264;43.898;2023-05-03T04:13:11;101239.38;;;8.49;70.91
70323;BME280;57735;56.264;43.898;2023-05-03T04:15:42;101235.63;;;8.63;69.41
70323;BME280;57735;56.264;43.898;2023-05-03T04:18:16;101231.88;;;8.77;68.34
70323;BME280;57735;56.264;43.898;2023-05-03T04:20:47;101241.53;;;8.89;67.97
70323;BME280;57735;56.264;43.898;2023-05-03T04:23:18;101234.53;;;8.99;68.07
70323;BME280;57735;56.264;43.898;2023-05-03T04:25:49;101232.72;;;9.10;68.17
70323;BME280;57735;56.264;43.898;2023-05-03T04:28:19;101241.50;;;9.22;67.36
70323;BME280;57735;56.264;43.898;2023-05-03T04:31:00;101233.63;;;9.32;66.27
70323;BME280;57735;56.264;43.898;2023-05-03T04:33:31;101240.00;;;9.40;65.71
70323;BME280;57735;56.264;43.898;2023-05-03T04:36:02;101241.09;;;9.49;65.45
70323;BME280;57735;56.264;43.898;2023-05-03T04:38:33;101235.84;;;9.59;64.81
70323;BME280;57735;56.264;43.898;2023-05-03T04:41:04;101240.19;;;9.71;63.87
70323;BME280;57735;56.264;43.898;2023-05-03T04:43:35;101240.13;;;9.82;63.79
70323;BME280;57735;56.264;43.898;2023-05-03T04:46:06;101237.53;;;9.92;63.21
70323;BME280;57735;56.264;43.898;2023-05-03T04:48:37;101237.63;;;10.01;62.59
70323;BME280;57735;56.264;43.898;2023-05-03T04:51:08;101233.19;;;10.11;61.38
70323;BME280;57735;56.264;43.898;2023-05-03T04:53:41;101225.16;;;10.23;60.79
70323;BME280;57735;56.264;43.898;2023-05-03T04:56:12;101230.31;;;10.35;61.11
70323;BME280;57735;56.264;43.898;2023-05-03T04:58:45;101225.72;;;10.47;61.45
70323;BME280;57735;56.264;43.898;2023-05-03T05:01:16;101227.75;;;10.55;59.61
70323;BME280;57735;56.264;43.898;2023-05-03T05:03:46;101225.13;;;10.64;59.77
70323;BME280;57735;56.264;43.898;2023-05-03T05:06:18;101214.47;;;10.74;60.02
70323;BME280;57735;56.264;43.898;2023-05-03T05:08:49;101215.50;;;10.82;60.03
70323;BME280;57735;56.264;43.898;2023-05-03T05:11:20;101221.72;;;10.93;59.00
70323;BME280;57735;56.264;43.898;2023-05-03T05:13:51;101210.97;;;11.04;58.42
70323;BME280;57735;56.264;43.898;2023-05-03T05:16:25;101217.88;;;11.16;58.68
70323;BME280;57735;56.264;43.898;2023-05-03T05:18:56;101224.06;;;11.26;58.28
70323;BME280;57735;56.264;43.898;2023-05-03T05:21:26;101210.03;;;11.34;56.98
70323;BME280;57735;56.264;43.898;2023-05-03T05:23:57;101217.19;;;11.43;56.68
70323;BME280;57735;56.264;43.898;2023-05-03T05:26:28;101210.19;;;11.51;56.07
70323;BME280;57735;56.264;43.898;2023-05-03T05:29:02;101214.69;;;11.61;55.40
70323;BME280;57735;56.264;43.898;2023-05-03T05:31:33;101203.88;;;11.72;55.24
70323;BME280;57735;56.264;43.898;2023-05-03T05:34:04;101211.78;;;11.83;54.45
70323;BME280;57735;56.264;43.898;2023-05-03T05:36:35;101200.38;;;11.91;54.47
70323;BME280;57735;56.264;43.898;2023-05-03T05:39:06;101204.59;;;12.03;54.32
70323;BME280;57735;56.264;43.898;2023-05-03T05:41:37;101206.81;;;12.17;54.05
70323;BME280;57735;56.264;43.898;2023-05-03T05:44:07;101205.81;;;12.28;54.32
70323;BME280;57735;56.264;43.898;2023-05-03T05:46:38;101205.78;;;12.37;52.99
70323;BME280;57735;56.264;43.898;2023-05-03T05:49:12;101197.59;;;12.48;53.09
70323;BME280;57735;56.264;43.898;2023-05-03T05:51:45;101206.97;;;12.62;52.32
70323;BME280;57735;56.264;43.898;2023-05-03T05:54:16;101208.06;;;12.69;48.24
70323;BME280;57735;56.264;43.898;2023-05-03T05:56:46;101206.19;;;12.79;48.79
70323;BME280;57735;56.264;43.898;2023-05-03T05:59:17;101216.53;;;12.92;49.58
70323;BME280;57735;56.264;43.898;2023-05-03T06:01:53;101214.25;;;13.07;48.82
70323;BME280;57735;56.264;43.898;2023-05-03T06:04:24;101208.00;;;13.16;47.10
70323;BME280;57735;56.264;43.898;2023-05-03T06:06:54;101203.28;;;13.27;46.71
70323;BME280;57735;56.264;43.898;2023-05-03T06:09:25;101205.22;;;13.35;44.40
70323;BME280;57735;56.264;43.898;2023-05-03T06:11:56;101207.66;;;13.46;42.88
70323;BME280;57735;56.264;43.898;2023-05-03T06:14:26;101201.25;;;13.57;42.03
70323;BME280;57735;56.264;43.898;2023-05-03T06:16:57;101205.53;;;13.68;41.29
70323;BME280;57735;56.264;43.898;2023-05-03T06:19:29;101209.97;;;13.77;40.19
70323;BME280;57735;56.264;43.898;2023-05-03T06:22:00;101209.91;;;13.86;38.50
70323;BME280;57735;56.264;43.898;2023-05-03T06:24:31;101198.78;;;13.99;39.02
70323;BME280;57735;56.264;43.898;2023-05-03T06:27:02;101201.69;;;14.06;38.01
70323;BME280;57735;56.264;43.898;2023-05-03T06:29:33;101209.50;;;13.99;36.23
70323;BME280;57735;56.264;43.898;2023-05-03T06:32:04;101217.63;;;14.07;37.67
70323;BME280;57735;56.264;43.898;2023-05-03T06:34:35;101201.53;;;14.07;37.39
70323;BME280;57735;56.264;43.898;2023-05-03T06:37:07;101206.72;;;13.91;38.41
70323;BME280;57735;56.264;43.898;2023-05-03T06:39:37;101202.75;;;13.95;39.36
70323;BME280;57735;56.264;43.898;2023-05-03T06:42:08;101209.34;;;14.01;39.19
70323;BME280;57735;56.264;43.898;2023-05-03T06:44:39;101203.88;;;14.10;38.43
70323;BME280;57735;56.264;43.898;2023-05-03T06:47:10;101217.34;;;14.18;37.16
70323;BME280;57735;56.264;43.898;2023-05-03T06:49:40;101209.69;;;14.23;36.91
70323;BME280;57735;56.264;43.898;2023-05-03T06:52:11;101216.03;;;14.22;36.78
70323;BME280;57735;56.264;43.898;2023-05-03T06:54:45;101208.16;;;14.21;36.39
70323;BME280;57735;56.264;43.898;2023-05-03T06:57:15;101209.88;;;14.30;37.21
70323;BME280;57735;56.264;43.898;2023-05-03T06:59:49;101202.91;;;14.37;36.60
70323;BME280;57735;56.264;43.898;2023-05-03T07:02:20;101210.09;;;14.37;35.57
70323;BME280;57735;56.264;43.898;2023-05-03T07:04:51;101207.13;;;14.40;36.60
70323;BME280;57735;56.264;43.898;2023-05-03T07:07:21;101197.97;;;14.50;36.92
70323;BME280;57735;56.264;43.898;2023-05-03T07:09:52;101193.31;;;14.60;37.34
70323;BME280;57735;56.264;43.898;2023-05-03T07:12:23;101204.63;;;14.72;37.85
70323;BME280;57735;56.264;43.898;2023-05-03T07:14:59;101211.72;;;14.81;36.50
70323;BME280;57735;56.264;43.898;2023-05-03T07:17:30;101216.78;;;14.84;35.53
70323;BME280;57735;56.264;43.898;2023-05-03T07:20:01;101216.44;;;14.87;34.59
70323;BME280;57735;56.264;43.898;2023-05-03T07:22:32;101207.91;;;14.92;33.68
70323;BME280;57735;56.264;43.898;2023-05-03T07:25:03;101199.88;;;15.00;34.38
70323;BME280;57735;56.264;43.898;2023-05-03T07:27:34;101205.47;;;15.07;34.79
70323;BME280;57735;56.264;43.898;2023-05-03T07:30:08;101208.78;;;15.00;33.78
70323;BME280;57735;56.264;43.898;2023-05-03T07:32:39;101199.09;;;15.08;34.11
70323;BME280;57735;56.264;43.898;2023-05-03T07:35:09;101213.84;;;15.12;34.12
70323;BME280;57735;56.264;43.898;2023-05-03T07:37:40;101212.69;;;15.14;33.57
70323;BME280;57735;56.264;43.898;2023-05-03T07:40:11;101207.19;;;15.24;34.30
70323;BME280;57735;56.264;43.898;2023-05-03T07:42:42;101204.84;;;15.29;35.12
70323;BME280;57735;56.264;43.898;2023-05-03T07:45:13;101199.16;;;15.32;35.08
70323;BME280;57735;56.264;43.898;2023-05-03T07:47:44;101193.13;;;15.38;34.54
70323;BME280;57735;56.264;43.898;2023-05-03T07:50:15;101195.13;;;15.44;35.55
70323;BME280;57735;56.264;43.898;2023-05-03T07:52:48;101189.44;;;15.47;34.56
70323;BME280;57735;56.264;43.898;2023-05-03T07:55:22;101194.66;;;15.49;34.46
70323;BME280;57735;56.264;43.898;2023-05-03T07:57:52;101189.16;;;15.58;35.71
70323;BME280;57735;56.264;43.898;2023-05-03T08:00:28;101189.00;;;15.68;35.02
70323;BME280;57735;56.264;43.898;2023-05-03T08:02:59;101189.84;;;15.68;33.75
70323;BME280;57735;56.264;43.898;2023-05-03T08:05:32;101176.91;;;15.72;34.08
70323;BME280;57735;56.264;43.898;2023-05-03T08:08:05;101178.41;;;15.75;34.11
70323;BME280;57735;56.264;43.898;2023-05-03T08:10:39;101174.53;;;15.77;33.80
70323;BME280;57735;56.264;43.898;2023-05-03T08:13:10;101172.69;;;15.78;33.57
70323;BME280;57735;56.264;43.898;2023-05-03T08:15:41;101165.97;;;15.82;33.85
70323;BME280;57735;56.264;43.898;2023-05-03T08:18:12;101150.00;;;15.88;34.79
70323;BME280;57735;56.264;43.898;2023-05-03T08:20:43;101154.19;;;15.99;34.78
70323;BME280;57735;56.264;43.898;2023-05-03T08:23:14;101152.81;;;16.11;34.23
70323;BME280;57735;56.264;43.898;2023-05-03T08:25:45;101168.28;;;16.17;33.95
70323;BME280;57735;56.264;43.898;2023-05-03T08:28:16;101150.47;;;16.24;34.08
70323;BME280;57735;56.264;43.898;2023-05-03T08:30:47;101160.88;;;16.35;34.01
70323;BME280;57735;56.264;43.898;2023-05-03T08:33:21;101152.44;;;16.38;33.73
70323;BME280;57735;56.264;43.898;2023-05-03T08:35:53;101139.63;;;16.49;34.40
70323;BME280;57735;56.264;43.898;2023-05-03T08:38:24;101156.78;;;16.56;33.19
70323;BME280;57735;56.264;43.898;2023-05-03T08:41:00;101148.72;;;16.48;32.98
70323;BME280;57735;56.264;43.898;2023-05-03T08:43:39;101138.78;;;16.48;33.24
70323;BME280;57735;56.264;43.898;2023-05-03T08:46:13;101137.75;;;16.57;33.83
70323;BME280;57735;56.264;43.898;2023-05-03T08:48:47;101136.38;;;16.61;33.17
70323;BME280;57735;56.264;43.898;2023-05-03T08:51:19;101119.09;;;16.56;32.81
70323;BME280;57735;56.264;43.898;2023-05-03T08:53:53;101122.78;;;16.63;33.60
70323;BME280;57735;56.264;43.898;2023-05-03T08:59:00;101114.25;;;16.90;32.48
70323;BME280;57735;56.264;43.898;2023-05-03T09:01:37;101098.53;;;16.94;32.79
70323;BME280;57735;56.264;43.898;2023-05-03T09:04:10;101109.09;;;17.03;32.49
70323;BME280;57735;56.264;43.898;2023-05-03T09:06:43;101120.47;;;17.14;32.76
70323;BME280;57735;56.264;43.898;2023-05-03T09:09:14;101107.00;;;17.14;31.53
70323;BME280;57735;56.264;43.898;2023-05-03T09:11:45;101110.38;;;17.16;32.37
70323;BME280;57735;56.264;43.898;2023-05-03T09:14:17;101111.00;;;17.26;32.79
70323;BME280;57735;56.264;43.898;2023-05-03T09:16:47;101117.84;;;17.28;32.30
70323;BME280;57735;56.264;43.898;2023-05-03T09:19:18;101115.66;;;17.32;31.34
70323;BME280;57735;56.264;43.898;2023-05-03T09:21:50;101106.69;;;17.39;32.02
70323;BME280;57735;56.264;43.898;2023-05-03T09:24:21;101095.72;;;17.41;31.78
70323;BME280;57735;56.264;43.898;2023-05-03T09:26:52;101094.88;;;17.40;30.94
70323;BME280;57735;56.264;43.898;2023-05-03T09:29:32;101091.94;;;17.50;31.92
70323;BME280;57735;56.264;43.898;2023-05-03T09:32:07;101087.75;;;17.62;31.55
70323;BME280;57735;56.264;43.898;2023-05-03T09:34:40;101102.44;;;17.60;31.32
70323;BME280;57735;56.264;43.898;2023-05-03T09:37:12;101100.13;;;17.57;30.99
70323;BME280;57735;56.264;43.898;2023-05-03T09:39:45;101097.72;;;17.62;31.64
70323;BME280;57735;56.264;43.898;2023-05-03T09:42:17;101110.69;;;17.66;31.25
70323;BME280;57735;56.264;43.898;2023-05-03T09:44:49;101092.66;;;17.67;30.59
70323;BME280;57735;56.264;43.898;2023-05-03T09:47:23;101094.34;;;17.68;30.53
70323;BME280;57735;56.264;43.898;2023-05-03T09:49:54;101096.13;;;17.75;30.70
70323;BME280;57735;56.264;43.898;2023-05-03T09:52:27;101090.94;;;17.89;30.86
70323;BME280;57735;56.264;43.898;2023-05-03T09:54:58;101085.91;;;18.00;30.60
70323;BME280;57735;56.264;43.898;2023-05-03T09:57:29;101082.38;;;18.00;31.04
70323;BME280;57735;56.264;43.898;2023-05-03T10:00:00;101088.72;;;18.07;31.24
70323;BME280;57735;56.264;43.898;2023-05-03T10:02:31;101078.84;;;18.14;31.00
70323;BME280;57735;56.264;43.898;2023-05-03T10:05:03;101091.91;;;18.25;31.13
70323;BME280;57735;56.264;43.898;2023-05-03T10:07:39;101082.97;;;18.39;30.72
70323;BME280;57735;56.264;43.898;2023-05-03T10:10:14;101085.44;;;18.56;30.95
70323;BME280;57735;56.264;43.898;2023-05-03T10:12:45;101086.38;;;18.63;30.46
70323;BME280;57735;56.264;43.898;2023-05-03T10:15:17;101082.47;;;18.51;30.33
70323;BME280;57735;56.264;43.898;2023-05-03T10:17:51;101077.63;;;18.46;30.66
70323;BME280;57735;56.264;43.898;2023-05-03T10:20:35;101082.09;;;18.54;30.98
70323;BME280;57735;56.264;43.898;2023-05-03T10:23:09;101087.69;;;18.52;30.19
70323;BME280;57735;56.264;43.898;2023-05-03T10:28:39;101075.41;;;18.64;29.50
70323;BME280;57735;56.264;43.898;2023-05-03T10:31:42;101075.31;;;18.72;29.55
70323;BME280;57735;56.264;43.898;2023-05-03T10:34:24;101076.06;;;19.24;29.19
70323;BME280;57735;56.264;43.898;2023-05-03T10:37:00;101072.94;;;19.48;29.57
70323;BME280;57735;56.264;43.898;2023-05-03T10:39:31;101058.59;;;19.47;28.24
70323;BME280;57735;56.264;43.898;2023-05-03T10:42:04;101057.00;;;19.32;29.61
70323;BME280;57735;56.264;43.898;2023-05-03T10:44:37;101058.78;;;19.67;29.10
70323;BME280;57735;56.264;43.898;2023-05-03T10:47:16;101070.50;;;19.74;28.84
70323;BME280;57735;56.264;43.898;2023-05-03T10:49:58;101066.53;;;19.70;28.42
70323;BME280;57735;56.264;43.898;2023-05-03T10:55:09;101060.88;;;19.93;28.37
70323;BME280;57735;56.264;43.898;2023-05-03T10:57:44;101070.72;;;19.73;27.74
70323;BME280;57735;56.264;43.898;2023-05-03T11:03:18;101064.47;;;19.30;28.64
70323;BME280;57735;56.264;43.898;2023-05-03T11:05:55;101048.59;;;19.48;28.90
70323;BME280;57735;56.264;43.898;2023-05-03T11:08:26;101060.63;;;19.60;29.27
70323;BME280;57735;56.264;43.898;2023-05-03T11:10:59;101057.69;;;19.62;28.57
70323;BME280;57735;56.264;43.898;2023-05-03T11:13:31;101049.63;;;19.47;28.30
70323;BME280;57735;56.264;43.898;2023-05-03T11:16:05;101041.56;;;19.26;28.78
70323;BME280;57735;56.264;43.898;2023-05-03T11:18:36;101047.25;;;19.09;29.15
70323;BME280;57735;56.264;43.898;2023-05-03T11:21:10;101036.16;;;19.04;29.29
70323;BME280;57735;56.264;43.898;2023-05-03T11:23:44;101039.75;;;19.11;29.91
70323;BME280;57735;56.264;43.898;2023-05-03T11:26:15;101032.75;;;19.17;29.83
70323;BME280;57735;56.264;43.898;2023-05-03T11:28:48;101032.31;;;19.63;29.16
70323;BME280;57735;56.264;43.898;2023-05-03T11:31:19;101026.66;;;19.85;29.31
70323;BME280;57735;56.264;43.898;2023-05-03T11:33:50;101037.13;;;19.95;28.82
70323;BME280;57735;56.264;43.898;2023-05-03T11:36:21;101028.41;;;20.00;29.17
70323;BME280;57735;56.264;43.898;2023-05-03T11:38:52;101021.56;;;20.04;28.77
70323;BME280;57735;56.264;43.898;2023-05-03T11:41:23;101021.41;;;20.12;28.64
70323;BME280;57735;56.264;43.898;2023-05-03T11:43:54;101020.44;;;20.26;28.78
70323;BME280;57735;56.264;43.898;2023-05-03T11:46:27;101019.16;;;20.22;28.16
70323;BME280;57735;56.264;43.898;2023-05-03T11:49:01;101007.31;;;20.23;29.30
70323;BME280;57735;56.264;43.898;2023-05-03T11:51:33;101016.72;;;20.27;28.60
70323;BME280;57735;56.264;43.898;2023-05-03T11:54:04;101010.75;;;20.04;28.19
70323;BME280;57735;56.264;43.898;2023-05-03T11:56:36;101011.00;;;20.15;29.16
70323;BME280;57735;56.264;43.898;2023-05-03T11:59:07;100998.88;;;20.39;28.70
70323;BME280;57735;56.264;43.898;2023-05-03T12:01:42;101017.69;;;20.61;28.85
70323;BME280;57735;56.264;43.898;2023-05-03T12:04:13;101008.34;;;20.70;28.82
70323;BME280;57735;56.264;43.898;2023-05-03T12:06:45;101009.59;;;20.74;28.52
70323;BME280;57735;56.264;43.898;2023-05-03T12:09:24;100995.19;;;20.67;28.25
70323;BME280;57735;56.264;43.898;2023-05-03T12:11:55;101014.81;;;20.75;28.49
70323;BME280;57735;56.264;43.898;2023-05-03T12:14:25;100999.97;;;20.65;28.16
70323;BME280;57735;56.264;43.898;2023-05-03T12:16:56;100991.66;;;20.66;27.93
70323;BME280;57735;56.264;43.898;2023-05-03T12:19:28;100998.34;;;20.77;28.15
70323;BME280;57735;56.264;43.898;2023-05-03T12:22:00;100993.78;;;20.90;28.47
70323;BME280;57735;56.264;43.898;2023-05-03T12:24:33;100995.50;;;21.11;28.42
70323;BME280;57735;56.264;43.898;2023-05-03T12:27:06;101000.69;;;21.66;27.03
70323;BME280;57735;56.264;43.898;2023-05-03T12:29:37;100999.41;;;22.08;26.43
70323;BME280;57735;56.264;43.898;2023-05-03T12:32:07;100998.88;;;22.31;26.45
70323;BME280;57735;56.264;43.898;2023-05-03T12:34:38;101010.22;;;22.66;26.29
70323;BME280;57735;56.264;43.898;2023-05-03T12:37:10;100986.78;;;22.64;25.48
70323;BME280;57735;56.264;43.898;2023-05-03T12:39:41;100992.94;;;22.53;26.05
70323;BME280;57735;56.264;43.898;2023-05-03T12:42:15;100994.19;;;22.00;26.38
70323;BME280;57735;56.264;43.898;2023-05-03T12:44:45;100993.00;;;22.40;26.45
70323;BME280;57735;56.264;43.898;2023-05-03T12:47:16;100998.69;;;22.77;26.44
70323;BME280;57735;56.264;43.898;2023-05-03T12:49:47;100995.38;;;22.17;26.92
70323;BME280;57735;56.264;43.898;2023-05-03T12:52:19;100999.25;;;21.76;27.34
70323;BME280;57735;56.264;43.898;2023-05-03T12:54:51;100998.78;;;22.06;26.90
70323;BME280;57735;56.264;43.898;2023-05-03T12:57:24;101001.50;;;22.06;26.42
70323;BME280;57735;56.264;43.898;2023-05-03T12:59:55;101010.06;;;21.89;26.74
70323;BME280;57735;56.264;43.898;2023-05-03T13:02:26;101007.22;;;21.45;27.32
70323;BME280;57735;56.264;43.898;2023-05-03T13:04:56;101000.88;;;20.98;28.18
70323;BME280;57735;56.264;43.898;2023-05-03T13:07:28;101005.91;;;21.14;28.44
70323;BME280;57735;56.264;43.898;2023-05-03T13:09:59;100995.88;;;21.02;28.23
70323;BME280;57735;56.264;43.898;2023-05-03T13:12:30;101000.53;;;21.28;28.55
70323;BME280;57735;56.264;43.898;2023-05-03T13:15:03;100998.84;;;21.40;28.27
70323;BME280;57735;56.264;43.898;2023-05-03T13:17:35;100984.69;;;21.24;28.68
70323;BME280;57735;56.264;43.898;2023-05-03T13:20:06;100993.13;;;20.82;29.16
70323;BME280;57735;56.264;43.898;2023-05-03T13:22:37;100987.44;;;20.50;30.05
70323;BME280;57735;56.264;43.898;2023-05-03T13:25:08;100996.09;;;20.33;30.51